createdAt,value
2023-01-15T00:01:32.559Z,12.89
2023-01-15T00:03:34.231Z,12.89
2023-01-15T00:05:36.345Z,12.90
2023-01-15T00:07:38.103Z,12.80
2023-01-15T00:09:39.718Z,12.81
2023-01-15T00:11:41.416Z,12.75
2023-01-15T00:13:43.261Z,12.78
2023-01-15T00:15:44.959Z,12.82
2023-01-15T00:17:47.970Z,12.75
2023-01-15T00:19:49.570Z,12.78
2023-01-15T00:21:51.155Z,12.77
2023-01-15T00:23:53.527Z,12.81
2023-01-15T00:25:56.565Z,12.92
2023-01-15T00:27:58.237Z,12.92
2023-01-15T00:30:00.129Z,12.94
2023-01-15T00:32:03.791Z,13.07
2023-01-15T00:34:06.738Z,13.02
2023-01-15T00:36:08.557Z,13.03
2023-01-15T00:38:10.130Z,13.02
2023-01-15T00:40:13.089Z,13.10
2023-01-15T00:42:14.872Z,13.09
2023-01-15T00:44:17.186Z,13.12
2023-01-15T00:46:18.875Z,13.21
2023-01-15T00:48:20.546Z,13.21
2023-01-15T00:50:23.573Z,13.15
2023-01-15T00:52:25.211Z,13.17
2023-01-15T00:54:26.845Z,13.17
2023-01-15T00:56:28.559Z,13.11
2023-01-15T00:58:30.253Z,13.07
2023-01-15T01:00:31.917Z,13.11
2023-01-15T01:02:33.631Z,13.08
2023-01-15T01:04:35.412Z,13.18
2023-01-15T01:06:38.433Z,13.10
2023-01-15T01:08:39.977Z,13.09
2023-01-15T01:10:41.554Z,13.14
2023-01-15T01:12:43.175Z,12.95
2023-01-15T01:14:44.707Z,13.02
2023-01-15T01:16:46.365Z,13.03
2023-01-15T01:18:48.018Z,13.03
2023-01-15T01:20:49.667Z,13.11
2023-01-15T01:22:53.016Z,13.09
2023-01-15T01:24:54.639Z,13.15
2023-01-15T01:26:56.223Z,13.11
2023-01-15T01:28:58.141Z,13.09
2023-01-15T01:30:59.718Z,13.15
2023-01-15T01:33:01.312Z,13.19
2023-01-15T01:35:03.317Z,13.16
2023-01-15T01:37:05.057Z,13.16
2023-01-15T01:39:13.708Z,13.08
2023-01-15T01:41:15.770Z,12.97
2023-01-15T01:43:20.375Z,13.05
2023-01-15T01:45:26.570Z,13.02
2023-01-15T01:47:31.518Z,13.06
2023-01-15T01:49:34.794Z,13.08
2023-01-15T01:51:41.624Z,13.06
2023-01-15T01:53:43.891Z,13.08
2023-01-15T01:55:47.572Z,12.99
2023-01-15T01:57:51.664Z,13.01
2023-01-15T01:59:53.730Z,13.00
2023-01-15T02:01:55.835Z,12.99
2023-01-15T02:03:57.798Z,13.04
2023-01-15T02:06:02.532Z,13.02
2023-01-15T02:08:12.235Z,13.05
2023-01-15T02:10:15.396Z,13.11
2023-01-15T02:12:24.893Z,13.04
2023-01-15T02:14:32.725Z,13.02
2023-01-15T02:16:40.482Z,12.89
2023-01-15T02:18:49.534Z,12.92
2023-01-15T02:20:56.521Z,12.92
2023-01-15T02:23:33.412Z,12.95
2023-01-15T02:25:54.719Z,12.98
2023-01-15T02:28:04.268Z,12.86
2023-01-15T02:30:10.612Z,12.87
2023-01-15T02:32:16.972Z,12.88
2023-01-15T02:34:25.362Z,12.79
2023-01-15T02:36:30.614Z,12.81
2023-01-15T02:38:36.069Z,12.82
2023-01-15T02:40:39.632Z,12.75
2023-01-15T02:42:43.899Z,12.49
2023-01-15T02:44:51.317Z,12.52
2023-01-15T02:46:55.412Z,12.54
2023-01-15T02:48:58.724Z,12.64
2023-01-15T02:51:07.415Z,12.64
2023-01-15T02:53:14.253Z,12.60
2023-01-15T02:55:22.054Z,12.62
2023-01-15T02:57:28.145Z,12.69
2023-01-15T02:59:35.097Z,12.69
2023-01-15T03:01:50.817Z,12.75
2023-01-15T03:04:02.348Z,12.81
2023-01-15T03:06:10.809Z,12.92
2023-01-15T03:08:12.579Z,12.95
2023-01-15T03:10:14.929Z,12.83
2023-01-15T03:12:24.404Z,12.92
2023-01-15T03:14:35.870Z,12.97
2023-01-15T03:16:43.292Z,12.88
2023-01-15T03:18:49.716Z,12.81
2023-01-15T03:20:57.512Z,12.80
2023-01-15T03:23:09.766Z,12.79
2023-01-15T03:25:16.460Z,12.79
2023-01-15T03:27:18.251Z,12.79
2023-01-15T03:29:21.103Z,12.77
2023-01-15T03:31:22.867Z,12.78
2023-01-15T03:33:25.941Z,12.83
2023-01-15T03:35:45.206Z,12.81
2023-01-15T03:37:46.992Z,12.85
2023-01-15T03:39:49.155Z,12.80
2023-01-15T03:42:04.599Z,12.88
2023-01-15T03:44:16.624Z,12.88
2023-01-15T03:46:42.596Z,12.87
2023-01-15T03:48:51.595Z,12.86
2023-01-15T03:50:59.934Z,12.88
2023-01-15T03:53:10.469Z,12.88
2023-01-15T03:55:16.406Z,12.84
2023-01-15T03:57:27.201Z,12.85
2023-01-15T03:59:33.442Z,12.83
2023-01-15T04:01:39.812Z,12.77
2023-01-15T04:03:43.604Z,12.79
2023-01-15T04:05:47.544Z,12.81
2023-01-15T04:07:51.604Z,12.80
2023-01-15T04:09:53.377Z,12.80
2023-01-15T04:12:01.333Z,12.83
2023-01-15T04:14:03.081Z,12.78
2023-01-15T04:16:05.536Z,12.71
2023-01-15T04:18:07.107Z,12.73
2023-01-15T04:20:10.210Z,12.64
2023-01-15T04:22:13.179Z,12.59
2023-01-15T04:24:14.858Z,12.54
2023-01-15T04:26:17.174Z,12.50
2023-01-15T04:28:18.734Z,12.53
2023-01-15T04:30:20.445Z,12.52
2023-01-15T04:32:22.129Z,12.52
2023-01-15T04:34:24.845Z,12.55
2023-01-15T04:36:26.416Z,12.53
2023-01-15T04:38:29.555Z,12.56
2023-01-15T04:40:32.192Z,12.62
2023-01-15T04:42:33.745Z,12.61
2023-01-15T04:44:37.081Z,12.62
2023-01-15T04:46:40.518Z,12.62
2023-01-15T04:48:42.200Z,12.59
2023-01-15T04:50:43.769Z,12.59
2023-01-15T04:52:45.318Z,12.63
2023-01-15T04:54:48.245Z,12.61
2023-01-15T04:56:52.019Z,12.61
2023-01-15T04:58:53.569Z,12.57
2023-01-15T05:00:55.083Z,12.57
2023-01-15T05:02:56.624Z,12.56
2023-01-15T05:04:58.301Z,12.59
2023-01-15T05:07:01.064Z,12.55
2023-01-15T05:09:03.645Z,12.52
2023-01-15T05:11:07.600Z,12.50
2023-01-15T05:13:09.221Z,12.47
2023-01-15T05:15:10.734Z,12.41
2023-01-15T05:17:12.637Z,12.43
2023-01-15T05:19:14.224Z,12.43
2023-01-15T05:21:18.138Z,12.45
2023-01-15T05:23:19.721Z,12.40
2023-01-15T05:25:21.488Z,12.40
2023-01-15T05:27:24.396Z,12.58
2023-01-15T05:29:26.041Z,12.48
2023-01-15T05:31:29.370Z,12.47
2023-01-15T05:33:30.919Z,12.53
2023-01-15T05:35:32.656Z,12.58
2023-01-15T05:37:34.184Z,12.52
2023-01-15T05:39:36.014Z,12.54
2023-01-15T05:41:37.663Z,12.45
2023-01-15T05:43:40.695Z,12.41
2023-01-15T05:45:42.259Z,12.45
2023-01-15T05:47:43.913Z,12.45
2023-01-15T05:49:45.845Z,12.47
2023-01-15T05:51:47.895Z,12.51
2023-01-15T05:53:49.467Z,12.56
2023-01-15T05:55:51.056Z,12.50
2023-01-15T05:57:52.621Z,12.47
2023-01-15T05:59:55.572Z,12.47
2023-01-15T06:01:58.208Z,12.49
2023-01-15T06:04:00.664Z,12.45
2023-01-15T06:06:03.690Z,12.46
2023-01-15T06:08:05.739Z,12.42
2023-01-15T06:10:08.243Z,12.41
2023-01-15T06:12:09.977Z,12.38
2023-01-15T06:14:12.256Z,12.32
2023-01-15T06:16:20.746Z,12.27
2023-01-15T06:18:23.308Z,12.21
2023-01-15T06:20:24.850Z,12.21
2023-01-15T06:22:26.626Z,12.20
2023-01-15T06:24:28.182Z,12.24
2023-01-15T06:26:29.738Z,12.23
2023-01-15T06:28:31.619Z,12.18
2023-01-15T06:30:34.455Z,12.14
2023-01-15T06:32:37.355Z,12.13
2023-01-15T06:34:38.897Z,12.10
2023-01-15T06:36:40.524Z,12.05
2023-01-15T06:38:43.119Z,12.03
2023-01-15T06:40:44.730Z,12.07
2023-01-15T06:42:46.337Z,12.07
2023-01-15T06:44:47.913Z,12.11
2023-01-15T06:46:51.453Z,12.08
2023-01-15T06:48:55.162Z,12.02
2023-01-15T06:50:56.832Z,12.04
2023-01-15T06:52:58.432Z,12.02
2023-01-15T06:54:59.988Z,12.03
2023-01-15T06:57:01.875Z,12.08
2023-01-15T06:59:03.457Z,12.08
2023-01-15T07:01:09.116Z,12.10
2023-01-15T07:03:11.287Z,12.11
2023-01-15T07:05:14.198Z,12.14
2023-01-15T07:07:16.475Z,12.14
2023-01-15T07:09:18.006Z,12.10
2023-01-15T07:11:19.541Z,12.10
2023-01-15T07:13:21.161Z,12.08
2023-01-15T07:15:22.784Z,12.02
2023-01-15T07:17:24.322Z,12.01
2023-01-15T07:19:25.960Z,11.99
2023-01-15T07:21:28.887Z,12.04
2023-01-15T07:23:30.436Z,12.06
2023-01-15T07:25:32.088Z,12.06
2023-01-15T07:27:33.590Z,12.02
2023-01-15T07:29:35.197Z,12.02
2023-01-15T07:31:36.975Z,12.02
2023-01-15T07:33:40.095Z,11.99
2023-01-15T07:35:41.692Z,12.04
2023-01-15T07:37:44.609Z,12.07
2023-01-15T07:39:46.372Z,12.04
2023-01-15T07:41:48.057Z,12.08
2023-01-15T07:43:49.603Z,12.07
2023-01-15T07:45:51.202Z,12.08
2023-01-15T07:47:54.145Z,12.03
2023-01-15T07:49:55.830Z,11.98
2023-01-15T07:51:57.557Z,12.03
2023-01-15T07:54:00.464Z,12.02
2023-01-15T07:56:02.516Z,12.06
2023-01-15T07:58:04.109Z,12.11
2023-01-15T08:00:07.962Z,11.91
2023-01-15T08:02:09.907Z,11.77
2023-01-15T08:04:11.736Z,11.74
2023-01-15T08:06:13.379Z,11.70
2023-01-15T08:08:15.441Z,11.70
2023-01-15T08:10:18.647Z,11.72
2023-01-15T08:12:20.249Z,11.72
2023-01-15T08:14:21.873Z,11.77
2023-01-15T08:16:23.485Z,11.77
2023-01-15T08:18:25.169Z,11.74
2023-01-15T08:20:27.171Z,11.72
2023-01-15T08:22:29.007Z,11.71
2023-01-15T08:24:30.577Z,11.71
2023-01-15T08:26:34.688Z,11.69
2023-01-15T08:28:36.259Z,11.69
2023-01-15T08:30:40.020Z,11.63
2023-01-15T08:32:41.694Z,11.63
2023-01-15T08:34:43.283Z,11.55
2023-01-15T08:36:44.888Z,11.54
2023-01-15T08:38:48.717Z,11.52
2023-01-15T08:40:53.232Z,11.53
2023-01-15T08:42:56.691Z,11.47
2023-01-15T08:44:58.304Z,11.47
2023-01-15T08:47:00.152Z,11.47
2023-01-15T08:49:01.760Z,11.44
2023-01-15T08:51:05.213Z,11.43
2023-01-15T08:53:06.767Z,11.39
2023-01-15T08:55:08.840Z,11.35
2023-01-15T08:57:10.535Z,11.32
2023-01-15T08:59:13.645Z,11.30
2023-01-15T09:01:15.342Z,11.36
2023-01-15T09:03:17.092Z,11.32
2023-01-15T09:05:19.819Z,11.27
2023-01-15T09:07:21.425Z,11.27
2023-01-15T09:09:23.619Z,11.09
2023-01-15T09:11:26.825Z,11.13
2023-01-15T09:13:29.641Z,11.19
2023-01-15T09:15:35.693Z,11.12
2023-01-15T09:17:37.246Z,11.09
2023-01-15T09:19:38.777Z,11.14
2023-01-15T09:21:40.323Z,11.21
2023-01-15T09:23:41.939Z,11.11
2023-01-15T09:25:53.018Z,11.14
2023-01-15T09:27:55.605Z,11.12
2023-01-15T09:29:57.245Z,11.16
2023-01-15T09:32:00.182Z,11.19
2023-01-15T09:34:01.989Z,11.20
2023-01-15T09:36:03.942Z,11.22
2023-01-15T09:38:05.509Z,11.24
2023-01-15T09:40:18.807Z,11.27
2023-01-15T09:42:42.234Z,11.28
2023-01-15T09:44:59.788Z,11.18
2023-01-15T09:47:11.294Z,11.18
2023-01-15T09:49:26.280Z,11.33
2023-01-15T09:51:36.330Z,11.38
2023-01-15T09:53:53.207Z,11.36
2023-01-15T09:55:55.083Z,11.26
2023-01-15T09:57:59.777Z,11.26
2023-01-15T10:00:04.367Z,11.22
2023-01-15T10:02:19.853Z,11.26
2023-01-15T10:04:35.991Z,11.18
2023-01-15T10:06:45.281Z,11.11
2023-01-15T10:08:48.653Z,11.20
2023-01-15T10:10:55.411Z,11.26
2023-01-15T10:13:02.595Z,11.16
2023-01-15T10:15:16.613Z,11.16
2023-01-15T10:17:24.765Z,11.10
2023-01-15T10:19:34.327Z,11.11
2023-01-15T10:21:52.034Z,11.11
2023-01-15T10:24:02.718Z,11.01
2023-01-15T10:26:13.651Z,10.96
2023-01-15T10:28:20.006Z,11.03
2023-01-15T10:30:32.033Z,11.07
2023-01-15T10:32:56.898Z,11.00
2023-01-15T10:35:11.386Z,10.99
2023-01-15T10:37:19.433Z,11.05
2023-01-15T10:39:30.033Z,11.02
2023-01-15T10:41:56.777Z,10.87
2023-01-15T10:44:05.297Z,10.84
2023-01-15T10:46:13.158Z,10.85
2023-01-15T10:48:23.913Z,10.82
2023-01-15T10:50:27.564Z,10.70
2023-01-15T10:52:32.709Z,10.65
2023-01-15T10:54:39.264Z,10.69
2023-01-15T10:56:44.142Z,10.59
2023-01-15T10:58:52.350Z,10.65
2023-01-15T11:00:58.615Z,10.67
2023-01-15T11:03:02.519Z,10.68
2023-01-15T11:05:06.859Z,10.65
2023-01-15T11:07:11.203Z,10.58
2023-01-15T11:09:20.126Z,10.58
2023-01-15T11:11:25.393Z,10.59
2023-01-15T11:13:27.116Z,10.48
2023-01-15T11:15:28.696Z,10.48
2023-01-15T11:17:33.579Z,10.52
2023-01-15T11:19:37.705Z,10.52
2023-01-15T11:21:42.889Z,10.58
2023-01-15T11:23:45.191Z,10.58
2023-01-15T11:25:51.899Z,10.60
2023-01-15T11:27:53.475Z,10.65
2023-01-15T11:29:56.775Z,10.58
2023-01-15T11:31:58.290Z,10.55
2023-01-15T11:34:01.259Z,10.47
2023-01-15T11:36:05.969Z,10.46
2023-01-15T11:38:14.281Z,10.49
2023-01-15T11:40:18.334Z,10.50
2023-01-15T11:42:20.542Z,10.47
2023-01-15T11:44:23.391Z,10.44
2023-01-15T11:46:27.899Z,10.46
2023-01-15T11:48:29.612Z,10.41
2023-01-15T11:50:31.221Z,10.45
2023-01-15T11:52:32.793Z,10.42
2023-01-15T11:54:39.701Z,10.32
2023-01-15T11:56:42.881Z,10.33
2023-01-15T11:58:47.520Z,10.34
2023-01-15T12:00:50.818Z,10.26
2023-01-15T12:02:55.367Z,10.28
2023-01-15T12:05:00.094Z,10.23
2023-01-15T12:07:05.267Z,10.24
2023-01-15T12:09:16.953Z,10.20
2023-01-15T12:11:34.627Z,10.19
2023-01-15T12:13:47.283Z,10.11
2023-01-15T12:16:02.947Z,10.06
2023-01-15T12:18:22.128Z,10.06
2023-01-15T12:20:29.618Z,10.08
2023-01-15T12:22:51.033Z,10.12
2023-01-15T12:25:23.374Z,10.13
2023-01-15T12:27:52.801Z,10.10
2023-01-15T12:30:00.497Z,10.18
2023-01-15T12:32:07.670Z,10.26
2023-01-15T12:34:19.248Z,10.27
2023-01-15T12:36:25.885Z,10.31
2023-01-15T12:38:40.248Z,10.34
2023-01-15T12:40:48.813Z,10.35
2023-01-15T12:42:53.999Z,10.32
2023-01-15T12:45:01.149Z,10.28
2023-01-15T12:47:07.384Z,10.33
2023-01-15T12:49:19.574Z,10.36
2023-01-15T12:51:29.525Z,10.29
2023-01-15T12:53:39.860Z,10.26
2023-01-15T12:55:46.100Z,10.33
2023-01-15T12:57:51.122Z,10.28
2023-01-15T12:59:59.086Z,10.38
2023-01-15T13:02:11.023Z,10.33
2023-01-15T13:04:16.758Z,10.25
2023-01-15T13:06:19.608Z,10.24
2023-01-15T13:08:26.787Z,10.08
2023-01-15T13:10:30.547Z,10.11
2023-01-15T13:12:32.859Z,10.12
2023-01-15T13:14:34.397Z,10.21
2023-01-15T13:16:44.889Z,10.24
2023-01-15T13:18:58.520Z,10.25
2023-01-15T13:21:05.478Z,10.26
2023-01-15T13:23:15.186Z,10.32
2023-01-15T13:25:34.325Z,10.36
2023-01-15T13:27:57.102Z,10.39
2023-01-15T13:30:31.690Z,10.45
2023-01-15T13:32:39.952Z,10.45
2023-01-15T13:34:46.252Z,10.57
2023-01-15T13:36:52.529Z,10.60
2023-01-15T13:38:58.729Z,10.68
2023-01-15T13:41:00.578Z,10.73
2023-01-15T13:43:03.561Z,10.74
2023-01-15T13:45:24.196Z,10.83
2023-01-15T13:47:28.373Z,10.91
2023-01-15T13:49:34.588Z,10.94
2023-01-15T13:51:36.230Z,11.05
2023-01-15T13:53:43.519Z,11.13
2023-01-15T13:55:52.498Z,11.22
2023-01-15T13:57:54.087Z,11.21
2023-01-15T13:59:55.832Z,11.30
2023-01-15T14:01:57.631Z,11.33
2023-01-15T14:04:02.886Z,11.38
2023-01-15T14:06:08.061Z,11.44
2023-01-15T14:08:16.677Z,11.46
2023-01-15T14:10:39.069Z,11.41
2023-01-15T14:12:50.011Z,11.35
2023-01-15T14:15:12.664Z,11.27
2023-01-15T14:17:40.813Z,11.30
2023-01-15T14:20:03.527Z,11.21
2023-01-15T14:22:29.914Z,11.21
2023-01-15T14:24:56.986Z,11.19
2023-01-15T14:27:05.805Z,11.06
2023-01-15T14:29:33.891Z,11.05
2023-01-15T14:31:46.034Z,11.04
2023-01-15T14:33:58.214Z,10.77
2023-01-15T14:36:10.840Z,10.83
2023-01-15T14:38:17.632Z,10.84
2023-01-15T14:40:22.181Z,10.74
2023-01-15T14:42:28.376Z,10.84
2023-01-15T14:44:32.705Z,10.76
2023-01-15T14:46:35.184Z,10.86
2023-01-15T14:48:38.450Z,10.86
2023-01-15T14:50:41.304Z,10.78
2023-01-15T14:52:46.129Z,10.88
2023-01-15T14:54:49.480Z,10.87
2023-01-15T14:56:55.147Z,10.89
2023-01-15T14:59:03.380Z,10.53
2023-01-15T15:01:17.132Z,10.61
2023-01-15T15:03:22.807Z,10.62
2023-01-15T15:05:24.816Z,10.57
2023-01-15T15:07:28.144Z,10.59
2023-01-15T15:09:36.373Z,10.54
2023-01-15T15:11:47.092Z,10.67
2023-01-15T15:13:50.183Z,10.62
2023-01-15T15:15:59.697Z,10.53
2023-01-15T15:18:04.830Z,10.58
2023-01-15T15:20:31.847Z,10.53
2023-01-15T15:22:38.536Z,10.48
2023-01-15T15:24:47.422Z,10.39
2023-01-15T15:26:50.771Z,10.40
2023-01-15T15:28:59.404Z,10.37
2023-01-15T15:31:01.220Z,10.36
2023-01-15T15:33:04.903Z,10.40
2023-01-15T15:35:23.594Z,10.30
2023-01-15T15:37:27.624Z,10.31
2023-01-15T15:39:38.192Z,10.24
2023-01-15T15:41:42.337Z,10.32
2023-01-15T15:43:52.068Z,10.34
2023-01-15T15:45:55.206Z,10.31
2023-01-15T15:47:57.573Z,10.30
2023-01-15T15:49:59.222Z,10.19
2023-01-15T15:52:00.897Z,10.16
2023-01-15T15:54:14.260Z,10.12
2023-01-15T15:56:16.144Z,10.28
2023-01-15T15:58:24.807Z,10.24
2023-01-15T16:00:31.272Z,10.32
2023-01-15T16:02:37.004Z,10.27
2023-01-15T16:04:44.925Z,10.29
2023-01-15T16:06:46.535Z,10.26
2023-01-15T16:08:53.261Z,10.32
2023-01-15T16:10:57.985Z,10.18
2023-01-15T16:13:03.785Z,10.26
2023-01-15T16:15:06.589Z,10.22
2023-01-15T16:17:13.431Z,10.15
2023-01-15T16:19:19.655Z,10.07
2023-01-15T16:21:33.883Z,10.11
2023-01-15T16:23:35.494Z,10.12
2023-01-15T16:25:41.776Z,10.17
2023-01-15T16:27:43.485Z,10.23
2023-01-15T16:29:49.268Z,10.23
2023-01-15T16:31:51.730Z,10.20
2023-01-15T16:33:57.386Z,10.15
2023-01-15T16:36:00.228Z,10.13
2023-01-15T16:38:03.487Z,10.14
2023-01-15T16:40:06.458Z,10.07
2023-01-15T16:42:25.866Z,10.13
2023-01-15T16:44:37.227Z,10.07
2023-01-15T16:46:49.917Z,10.02
2023-01-15T16:49:23.037Z,10.08
2023-01-15T16:51:31.417Z,10.09
2023-01-15T16:53:39.543Z,10.10
2023-01-15T16:55:43.867Z,10.03
2023-01-15T16:57:45.461Z,10.13
2023-01-15T16:59:55.383Z,10.21
2023-01-15T17:02:04.496Z,10.19
2023-01-15T17:04:24.256Z,10.19
2023-01-15T17:06:27.657Z,10.10
2023-01-15T17:08:33.552Z,10.13
2023-01-15T17:10:35.415Z,10.04
2023-01-15T17:12:39.967Z,10.12
2023-01-15T17:14:41.645Z,10.24
2023-01-15T17:16:43.270Z,10.28
2023-01-15T17:18:45.304Z,10.23
2023-01-15T17:20:48.447Z,10.21
2023-01-15T17:22:50.896Z,10.26
2023-01-15T17:24:55.352Z,10.20
2023-01-15T17:26:56.899Z,10.26
2023-01-15T17:28:58.489Z,10.36
2023-01-15T17:31:01.921Z,10.29
2023-01-15T17:33:05.861Z,10.37
2023-01-15T17:35:21.401Z,10.38
2023-01-15T17:37:24.357Z,10.29
2023-01-15T17:39:25.957Z,10.29
2023-01-15T17:41:27.500Z,10.26
2023-01-15T17:43:29.052Z,10.22
2023-01-15T17:45:33.855Z,10.21
2023-01-15T17:47:35.416Z,10.14
2023-01-15T17:49:37.285Z,10.16
2023-01-15T17:51:38.853Z,10.14
2023-01-15T17:53:41.957Z,10.07
2023-01-15T17:55:43.556Z,10.12
2023-01-15T17:57:45.680Z,10.18
2023-01-15T17:59:47.253Z,10.29
2023-01-15T18:01:48.894Z,10.31
2023-01-15T18:03:53.163Z,10.31
2023-01-15T18:05:54.813Z,10.33
2023-01-15T18:07:58.035Z,10.22
2023-01-15T18:10:01.724Z,10.07
2023-01-15T18:12:04.286Z,10.19
2023-01-15T18:14:05.877Z,10.16
2023-01-15T18:16:07.715Z,10.09
2023-01-15T18:18:09.585Z,10.08
2023-01-15T18:20:11.820Z,10.18
2023-01-15T18:22:13.407Z,10.12
2023-01-15T18:24:15.087Z,10.10
2023-01-15T18:26:18.054Z,10.04
2023-01-15T18:28:19.748Z,10.13
2023-01-15T18:30:21.446Z,9.94
2023-01-15T18:32:23.118Z,10.04
2023-01-15T18:34:24.711Z,10.03
2023-01-15T18:36:27.336Z,10.03
2023-01-15T18:38:29.050Z,10.04
2023-01-15T18:40:30.665Z,10.09
2023-01-15T18:42:33.631Z,10.01
2023-01-15T18:44:35.472Z,9.98
2023-01-15T18:46:37.095Z,9.97
2023-01-15T18:48:38.690Z,10.06
2023-01-15T18:50:40.283Z,10.07
2023-01-15T18:52:41.967Z,10.01
2023-01-15T18:54:43.558Z,9.93
2023-01-15T18:56:45.148Z,9.97
2023-01-15T18:58:48.057Z,10.06
2023-01-15T19:00:49.740Z,9.93
2023-01-15T19:02:51.822Z,10.03
2023-01-15T19:04:53.395Z,9.94
2023-01-15T19:06:55.019Z,9.92
2023-01-15T19:08:58.206Z,10.02
2023-01-15T19:10:59.792Z,9.96
2023-01-15T19:13:01.457Z,10.00
2023-01-15T19:15:05.678Z,9.98
2023-01-15T19:17:17.606Z,9.98
2023-01-15T19:19:19.245Z,9.91
2023-01-15T19:21:21.434Z,9.89
2023-01-15T19:23:23.039Z,9.85
2023-01-15T19:25:25.622Z,9.88
2023-01-15T19:27:27.182Z,9.81
2023-01-15T19:29:29.005Z,9.88
2023-01-15T19:31:31.987Z,9.91
2023-01-15T19:33:34.242Z,9.96
2023-01-15T19:35:36.029Z,9.96
2023-01-15T19:37:37.846Z,9.95
2023-01-15T19:39:39.389Z,9.94
2023-01-15T19:41:41.018Z,10.01
2023-01-15T19:43:42.635Z,9.93
2023-01-15T19:45:45.242Z,9.90
2023-01-15T19:47:48.869Z,9.97
2023-01-15T19:49:50.539Z,9.98
2023-01-15T19:51:52.086Z,10.03
2023-01-15T19:53:53.628Z,9.97
2023-01-15T19:55:55.192Z,10.01
2023-01-15T19:57:58.674Z,10.07
2023-01-15T20:00:00.216Z,10.03
2023-01-15T20:02:01.905Z,9.96
2023-01-15T20:04:05.406Z,10.06
2023-01-15T20:06:07.640Z,10.03
2023-01-15T20:08:09.595Z,10.04
2023-01-15T20:10:13.679Z,10.00
2023-01-15T20:12:15.238Z,9.90
2023-01-15T20:14:16.827Z,9.90
2023-01-15T20:16:19.759Z,9.91
2023-01-15T20:18:21.767Z,9.89
2023-01-15T20:20:25.136Z,9.92
2023-01-15T20:22:29.018Z,9.96
2023-01-15T20:24:30.693Z,9.91
2023-01-15T20:26:35.413Z,9.82
2023-01-15T20:28:37.237Z,9.86
2023-01-15T20:30:40.680Z,9.86
2023-01-15T20:32:44.371Z,9.86
2023-01-15T20:34:46.273Z,9.85
2023-01-15T20:36:49.257Z,9.84
2023-01-15T20:38:50.852Z,9.90
2023-01-15T20:40:52.464Z,9.82
2023-01-15T20:42:54.609Z,9.80
2023-01-15T20:44:56.462Z,9.68
2023-01-15T20:46:58.205Z,9.79
2023-01-15T20:48:59.758Z,9.78
2023-01-15T20:51:10.597Z,9.78
2023-01-15T20:53:13.483Z,9.83
2023-01-15T20:55:16.043Z,9.85
2023-01-15T20:57:17.665Z,9.87
2023-01-15T20:59:19.445Z,9.82
2023-01-15T21:01:21.103Z,9.92
2023-01-15T21:03:22.803Z,9.82
2023-01-15T21:05:25.590Z,9.92
2023-01-15T21:07:27.175Z,9.96
2023-01-15T21:09:30.335Z,9.94
2023-01-15T21:11:31.858Z,9.92
2023-01-15T21:13:33.400Z,9.88
2023-01-15T21:15:35.008Z,9.84
2023-01-15T21:17:37.405Z,9.67
2023-01-15T21:19:38.996Z,9.72
2023-01-15T21:21:40.589Z,9.70
2023-01-15T21:23:42.153Z,9.61
2023-01-15T21:25:45.181Z,9.67
2023-01-15T21:27:46.873Z,9.68
2023-01-15T21:29:48.615Z,9.52
2023-01-15T21:31:50.711Z,9.59
2023-01-15T21:33:53.041Z,9.49
2023-01-15T21:35:54.611Z,9.51
2023-01-15T21:37:56.174Z,9.47
2023-01-15T21:39:57.731Z,9.41
2023-01-15T21:42:00.988Z,9.41
2023-01-15T21:44:02.882Z,9.40
2023-01-15T21:46:05.964Z,9.41
2023-01-15T21:48:07.545Z,9.42
2023-01-15T21:50:10.127Z,9.51
2023-01-15T21:52:14.025Z,9.50
2023-01-15T21:54:15.918Z,9.51
2023-01-15T21:56:17.544Z,9.51
2023-01-15T21:58:20.527Z,9.43
2023-01-15T22:00:22.507Z,9.47
2023-01-15T22:02:24.434Z,9.46
2023-01-15T22:04:27.784Z,9.40
2023-01-15T22:06:29.405Z,9.35
2023-01-15T22:08:31.082Z,9.35
2023-01-15T22:10:32.808Z,9.35
2023-01-15T22:12:34.363Z,9.34
2023-01-15T22:14:37.377Z,9.38
2023-01-15T22:16:39.327Z,9.32
2023-01-15T22:18:43.392Z,9.34
2023-01-15T22:20:45.056Z,9.32
2023-01-15T22:22:46.902Z,9.30
2023-01-15T22:24:54.468Z,9.21
2023-01-15T22:26:56.203Z,9.25
2023-01-15T22:28:58.414Z,9.35
2023-01-15T22:31:05.808Z,9.34
2023-01-15T22:33:07.399Z,9.32
2023-01-15T22:35:09.505Z,9.34
2023-01-15T22:37:13.107Z,9.46
2023-01-15T22:39:14.696Z,9.47
2023-01-15T22:41:16.207Z,9.51
2023-01-15T22:43:17.766Z,9.49
2023-01-15T22:45:20.725Z,9.40
2023-01-15T22:47:23.871Z,9.44
2023-01-15T22:49:25.712Z,9.54
2023-01-15T22:51:27.330Z,9.55
2023-01-15T22:53:29.036Z,9.64
2023-01-15T22:55:30.647Z,9.49
2023-01-15T22:57:32.196Z,9.66
2023-01-15T22:59:33.788Z,9.72
2023-01-15T23:01:35.348Z,9.53
2023-01-15T23:03:38.459Z,9.60
2023-01-15T23:05:40.389Z,9.55
2023-01-15T23:07:42.026Z,9.53
2023-01-15T23:09:43.563Z,9.64
2023-01-15T23:11:45.305Z,9.59
2023-01-15T23:13:47.100Z,9.61
2023-01-15T23:15:57.626Z,9.65
2023-01-15T23:17:59.273Z,9.81
2023-01-15T23:20:02.170Z,9.85
2023-01-15T23:22:03.720Z,9.78
2023-01-15T23:24:05.943Z,9.64
2023-01-15T23:26:09.794Z,9.57
2023-01-15T23:28:11.341Z,9.61
2023-01-15T23:30:13.615Z,9.68
2023-01-15T23:32:17.603Z,9.64
2023-01-15T23:34:19.248Z,9.77
2023-01-15T23:36:23.027Z,9.77
2023-01-15T23:38:24.709Z,9.88
2023-01-15T23:40:26.315Z,9.59
2023-01-15T23:42:27.893Z,9.46
2023-01-15T23:44:29.432Z,9.49
2023-01-15T23:46:31.461Z,9.49
2023-01-15T23:48:33.102Z,9.54
2023-01-15T23:50:34.763Z,9.60
2023-01-15T23:52:37.713Z,9.63
2023-01-15T23:54:39.300Z,9.66
2023-01-15T23:56:40.967Z,9.66
2023-01-15T23:58:42.522Z,9.54
